Time;durP1;ratioP1;P1;durP2;ratioP2;P2;SDS_P1;SDS_P2;PMS_P1;PMS_P2;Temp;Humidity;BMP_temperature;BMP_pressure;BME280_temperature;BME280_humidity;BME280_pressure;Samples;Min_cycle;Max_cycle;Signal;HPM_P1;HPM_P2
2022/11/08 00:01:52;;;;;;;4.23;1.57;;;;;;;6.89;100.00;96657.81;5075259;28;20220;-55
2022/11/08 00:04:21;;;;;;;1.30;1.20;;;;;;;6.90;100.00;96655.06;5069254;28;20203;-56
2022/11/08 00:15:01;;;;;;;1.63;1.33;;;;;;;6.74;100.00;96637.97;5073646;28;20213;-57
2022/11/08 00:17:32;;;;;;;1.57;1.17;;;;;;;6.68;100.00;96639.28;5063133;28;20244;-57
2022/11/08 00:20:03;;;;;;;1.50;1.40;;;;;;;6.81;100.00;96637.38;5058553;28;20612;-56
2022/11/08 00:22:31;;;;;;;1.40;1.30;;;;;;;6.70;100.00;96632.13;5054408;28;20580;-57
2022/11/08 00:24:58;;;;;;;1.17;1.00;;;;;;;6.68;100.00;96634.03;5071611;28;20301;-57
2022/11/08 00:27:26;;;;;;;2.10;1.03;;;;;;;6.62;100.00;96634.53;5075091;28;20289;-57
2022/11/08 00:29:53;;;;;;;2.33;1.40;;;;;;;6.63;100.00;96640.59;5057258;28;20261;-56
2022/11/08 00:32:24;;;;;;;1.70;1.20;;;;;;;6.61;100.00;96638.09;5055128;28;20270;-56
2022/11/08 00:34:51;;;;;;;1.40;1.20;;;;;;;6.63;100.00;96636.19;5054268;28;20218;-56
2022/11/08 00:37:20;;;;;;;1.50;1.40;;;;;;;6.71;100.00;96631.16;5055022;28;20211;-56
2022/11/08 00:39:47;;;;;;;1.20;1.20;;;;;;;6.67;100.00;96628.88;5073372;28;20325;-56
2022/11/08 00:42:14;;;;;;;3.77;1.40;;;;;;;6.61;100.00;96632.00;5074687;28;20281;-56
2022/11/08 00:44:40;;;;;;;8.80;1.80;;;;;;;6.62;100.00;96634.53;5070550;28;20207;-56
2022/11/08 00:47:07;;;;;;;1.23;1.20;;;;;;;6.62;100.00;96624.00;5066922;28;20206;-56
2022/11/08 00:49:34;;;;;;;2.03;1.33;;;;;;;6.66;100.00;96622.78;5074155;28;20316;-57
2022/11/08 00:52:03;;;;;;;1.60;1.47;;;;;;;6.72;100.00;96626.75;5074562;28;20607;-56
2022/11/08 00:54:32;;;;;;;4.40;1.40;;;;;;;6.71;100.00;96628.53;5062314;28;20218;-55
2022/11/08 00:56:59;;;;;;;3.13;1.30;;;;;;;6.78;100.00;96629.72;5074750;28;20233;-56
2022/11/08 00:59:26;;;;;;;1.20;1.10;;;;;;;6.75;100.00;96629.97;5073753;28;20262;-57
2022/11/08 01:01:53;;;;;;;3.83;1.27;;;;;;;6.76;100.00;96628.19;5074705;28;20310;-57
2022/11/08 01:04:21;;;;;;;1.40;1.30;;;;;;;6.78;100.00;96632.34;5074218;28;20244;-57
2022/11/08 01:06:48;;;;;;;3.00;1.17;;;;;;;6.78;100.00;96631.53;5074299;28;20283;-57
2022/11/08 01:09:15;;;;;;;2.33;1.40;;;;;;;6.73;100.00;96626.63;5075081;28;20207;-57
2022/11/08 01:11:46;;;;;;;1.30;1.20;;;;;;;6.66;100.00;96619.34;5074329;28;20248;-56
2022/11/08 01:14:14;;;;;;;1.40;1.30;;;;;;;6.64;100.00;96616.00;5062981;28;20249;-56
2022/11/08 01:16:42;;;;;;;1.37;1.13;;;;;;;6.63;100.00;96622.19;5061588;28;20203;-56
2022/11/08 01:19:11;;;;;;;1.83;1.40;;;;;;;6.55;100.00;96627.22;5074646;28;20588;-58
2022/11/08 01:21:37;;;;;;;1.83;1.10;;;;;;;6.45;100.00;96609.53;5081134;28;20455;-57
2022/11/08 01:24:05;;;;;;;1.00;1.00;;;;;;;6.41;100.00;96610.72;5090897;28;20637;-57
2022/11/08 01:26:32;;;;;;;1.20;1.10;;;;;;;6.39;100.00;96603.94;5094390;28;20222;-56
2022/11/08 01:29:01;;;;;;;1.57;1.13;;;;;;;6.34;100.00;96613.97;5083895;28;20194;-57
2022/11/08 01:31:29;;;;;;;2.30;1.13;;;;;;;6.36;100.00;96617.31;5082698;28;20186;-57
2022/11/08 01:33:58;;;;;;;1.67;1.00;;;;;;;6.30;100.00;96613.38;5095998;28;20186;-57
2022/11/08 01:36:26;;;;;;;1.20;1.13;;;;;;;6.31;100.00;96609.75;5090696;28;20287;-55
2022/11/08 01:38:54;;;;;;;3.43;1.40;;;;;;;6.28;100.00;96604.75;5079472;28;20237;-57
2022/11/08 01:41:25;;;;;;;1.30;1.20;;;;;;;6.28;100.00;96598.66;5079003;28;20266;-57
2022/11/08 01:43:55;;;;;;;1.23;1.13;;;;;;;6.22;100.00;96604.41;5078609;28;20658;-56
2022/11/08 01:46:46;;;;;;;1.77;1.33;;;;;;;6.14;100.00;96597.09;5066515;28;20275;-57
2022/11/08 01:49:27;;;;;;;1.60;1.37;;;;;;;6.15;100.00;96597.94;5078206;28;20286;-57
2022/11/08 01:51:57;;;;;;;1.40;1.30;;;;;;;6.15;100.00;96597.94;5066965;28;20249;-56
2022/11/08 01:54:28;;;;;;;1.20;1.10;;;;;;;6.09;100.00;96587.91;5076663;28;20542;-55
2022/11/08 01:56:55;;;;;;;6.57;1.67;;;;;;;6.06;100.00;96598.66;5078876;28;20326;-57
2022/11/08 01:59:23;;;;;;;3.13;1.37;;;;;;;6.00;100.00;96585.03;5077764;28;20674;-57
2022/11/08 02:01:52;;;;;;;1.47;1.43;;;;;;;6.07;100.00;96587.19;5064750;28;20311;-55
2022/11/08 02:04:18;;;;;;;1.33;1.10;;;;;;;6.04;100.00;96579.53;5078373;28;20594;-57
2022/11/08 02:06:45;;;;;;;2.53;1.57;;;;;;;6.02;100.00;96581.47;5077757;28;20284;-57
2022/11/08 02:09:14;;;;;;;2.27;1.03;;;;;;;6.05;100.00;96575.97;5063805;28;20565;-56
2022/11/08 02:11:41;;;;;;;2.53;1.27;;;;;;;5.98;100.00;96576.44;5076837;28;20289;-56
2022/11/08 02:14:09;;;;;;;1.07;1.00;;;;;;;6.00;100.00;96566.66;5077646;28;20658;-56
2022/11/08 02:16:37;;;;;;;1.80;1.20;;;;;;;5.97;100.00;96574.75;5075570;28;20289;-56
2022/11/08 02:19:09;;;;;;;2.50;0.87;;;;;;;5.93;100.00;96569.84;5057011;28;20298;-55
2022/11/08 02:21:40;;;;;;;1.53;1.30;;;;;;;5.89;100.00;96571.88;5058228;28;20587;-57
2022/11/08 02:24:10;;;;;;;1.20;1.13;;;;;;;5.87;100.00;96563.31;5066311;28;20281;-57
2022/11/08 02:26:38;;;;;;;2.90;1.20;;;;;;;5.87;100.00;96568.53;5072836;28;20235;-57
2022/11/08 02:29:26;;;;;;;1.63;1.00;;;;;;;5.95;100.00;96576.66;5077423;28;20211;-57
2022/11/08 02:31:53;;;;;;;1.73;1.50;;;;;;;5.89;100.00;96571.88;5075429;28;20282;-57
2022/11/08 02:34:23;;;;;;;1.10;1.10;;;;;;;5.93;100.00;96568.06;5084960;28;20539;-56
2022/11/08 02:36:50;;;;;;;1.03;1.00;;;;;;;5.93;100.00;96565.44;5075882;28;20297;-57
2022/11/08 02:39:18;;;;;;;2.60;1.30;;;;;;;5.87;100.00;96557.22;5076088;28;20303;-56
2022/11/08 02:41:45;;;;;;;1.70;1.60;;;;;;;5.89;100.00;96558.75;5076091;28;20199;-57
2022/11/08 02:44:12;;;;;;;1.40;1.20;;;;;;;5.88;100.00;96556.28;5076211;28;20285;-57
2022/11/08 02:46:38;;;;;;;4.27;1.43;;;;;;;5.90;100.00;96549.09;5075163;28;20252;-56
2022/11/08 02:49:05;;;;;;;1.10;1.10;;;;;;;5.94;100.00;96543.50;5076170;28;20313;-56
2022/11/08 02:51:32;;;;;;;1.40;1.30;;;;;;;5.94;100.00;96548.75;5075278;28;20285;-56
2022/11/08 02:53:59;;;;;;;1.63;1.33;;;;;;;5.93;100.00;96544.44;5075794;28;20206;-57
2022/11/08 02:56:27;;;;;;;1.67;1.43;;;;;;;5.90;100.00;96546.47;5076109;28;20575;-57
2022/11/08 02:58:54;;;;;;;1.70;1.23;;;;;;;5.93;100.00;96549.69;5075490;28;20293;-56
2022/11/08 03:01:21;;;;;;;1.60;1.50;;;;;;;5.93;100.00;96546.25;5075503;28;20262;-57
2022/11/08 03:03:48;;;;;;;1.47;1.37;;;;;;;5.89;100.00;96540.38;5075830;28;20663;-56
2022/11/08 03:06:15;;;;;;;1.90;1.67;;;;;;;5.87;100.00;96547.56;5075370;28;20217;-57
2022/11/08 03:08:43;;;;;;;1.50;1.40;;;;;;;5.84;100.00;96546.91;5073691;28;20340;-56
2022/11/08 03:11:10;;;;;;;1.60;1.50;;;;;;;5.86;100.00;96550.28;5075009;28;20635;-57
2022/11/08 03:13:39;;;;;;;1.47;1.27;;;;;;;5.86;100.00;96550.28;5075511;28;20238;-56
2022/11/08 03:16:06;;;;;;;1.40;1.30;;;;;;;5.93;100.00;96547.06;5064764;28;20615;-57
2022/11/08 03:18:33;;;;;;;1.50;1.50;;;;;;;5.87;100.00;96541.47;5072541;28;20242;-57
2022/11/08 03:21:01;;;;;;;1.47;1.37;;;;;;;5.79;100.00;96549.03;5074495;28;20730;-57
2022/11/08 03:23:28;;;;;;;1.77;1.67;;;;;;;5.85;100.00;96556.44;5075056;28;20526;-56
2022/11/08 03:25:55;;;;;;;2.10;1.40;;;;;;;5.79;100.00;96562.16;5075479;28;20295;-57
2022/11/08 03:28:22;;;;;;;4.80;1.70;;;;;;;5.78;100.00;96552.59;5076422;28;20707;-57
2022/11/08 03:30:54;;;;;;;1.80;1.30;;;;;;;5.76;100.00;96550.13;5075147;28;20689;-56
2022/11/08 03:33:22;;;;;;;1.50;1.40;;;;;;;5.68;100.00;96562.97;5062272;28;20213;-57
2022/11/08 03:35:51;;;;;;;1.77;1.67;;;;;;;5.66;100.00;96551.78;5075452;28;20289;-56
2022/11/08 03:38:17;;;;;;;1.67;1.57;;;;;;;5.76;100.00;96554.53;5074473;28;20579;-57
2022/11/08 03:40:46;;;;;;;3.73;1.80;;;;;;;5.80;100.00;96553.34;5074356;28;20261;-56
2022/11/08 03:43:12;;;;;;;2.20;2.00;;;;;;;5.76;100.00;96544.88;5061529;28;20238;-55
2022/11/08 03:45:39;;;;;;;3.40;2.13;;;;;;;5.67;100.00;96545.53;5062776;28;20290;-57
2022/11/08 03:48:08;;;;;;;2.60;2.40;;;;;;;5.70;100.00;96547.97;5074911;28;20293;-57
2022/11/08 03:50:35;;;;;;;2.80;1.80;;;;;;;5.73;100.00;96546.88;5089718;28;20234;-56
2022/11/08 03:53:02;;;;;;;2.60;2.00;;;;;;;5.78;100.00;96548.19;5086604;28;20241;-57
2022/11/08 03:55:28;;;;;;;2.40;2.20;;;;;;;5.67;100.00;96549.97;5086714;28;20202;-57
2022/11/08 03:57:56;;;;;;;3.50;2.23;;;;;;;5.60;100.00;96544.34;5083439;28;20241;-57
2022/11/08 04:00:27;;;;;;;2.70;2.53;;;;;;;5.65;100.00;96539.59;5078060;28;20292;-56
2022/11/08 04:02:55;;;;;;;3.50;2.47;;;;;;;5.67;100.00;96545.53;5068584;28;20261;-56
2022/11/08 04:05:23;;;;;;;2.20;2.00;;;;;;;5.67;100.00;96544.75;5073484;28;20309;-57
2022/11/08 04:07:50;;;;;;;2.17;1.97;;;;;;;5.64;100.00;96545.78;5076127;28;20245;-56
2022/11/08 04:10:17;;;;;;;2.80;2.20;;;;;;;5.61;100.00;96538.16;5077746;28;20891;-57
2022/11/08 04:15:30;;;;;;;2.07;1.97;;;;;;;5.63;100.00;96536.25;5069998;28;20648;-55
2022/11/08 04:23:30;;;;;;;2.27;2.07;;;;;;;5.69;100.00;96542.81;5075079;28;20360;-57
2022/11/08 04:25:58;;;;;;;1.97;1.87;;;;;;;5.71;100.00;96536.50;5074858;28;20627;-57
2022/11/08 04:28:26;;;;;;;3.53;2.03;;;;;;;5.72;100.00;96532.09;5075984;28;20297;-57
2022/11/08 04:30:57;;;;;;;2.03;1.93;;;;;;;5.70;100.00;96534.84;5075352;28;20202;-56
2022/11/08 04:33:24;;;;;;;3.20;2.00;;;;;;;5.68;100.00;96534.09;5075445;28;20234;-57
2022/11/08 04:35:53;;;;;;;1.93;1.83;;;;;;;5.66;100.00;96520.28;5074831;28;20686;-57
2022/11/08 04:38:20;;;;;;;3.17;1.80;;;;;;;5.65;100.00;96523.84;5061713;28;20234;-57
2022/11/08 04:40:48;;;;;;;2.27;2.10;;;;;;;5.63;100.00;96528.41;5074870;28;20302;-57
2022/11/08 04:43:15;;;;;;;2.20;2.00;;;;;;;5.63;100.00;96528.41;5075262;28;20294;-57
2022/11/08 04:45:42;;;;;;;2.27;2.00;;;;;;;5.63;100.00;96527.56;5075538;28;20222;-57
2022/11/08 04:48:11;;;;;;;2.20;2.00;;;;;;;5.71;100.00;96526.00;5062219;28;20249;-57
2022/11/08 04:50:38;;;;;;;2.00;1.90;;;;;;;5.69;100.00;96522.66;5076067;28;20276;-56
2022/11/08 04:53:06;;;;;;;3.03;2.10;;;;;;;5.74;100.00;96527.59;5075738;28;20210;-57
2022/11/08 04:55:35;;;;;;;2.90;2.10;;;;;;;5.69;100.00;96527.06;5075873;28;20315;-57
2022/11/08 04:58:02;;;;;;;2.30;2.10;;;;;;;5.70;100.00;96519.09;5075388;28;20237;-56
2022/11/08 05:00:31;;;;;;;4.60;2.37;;;;;;;5.65;100.00;96510.72;5074876;28;20254;-56
2022/11/08 05:03:00;;;;;;;3.03;2.33;;;;;;;5.73;100.00;96516.25;5075617;28;20237;-56
2022/11/08 05:05:26;;;;;;;3.27;2.10;;;;;;;5.64;100.00;96498.56;5075942;28;20309;-57
2022/11/08 05:07:54;;;;;;;2.03;1.90;;;;;;;5.65;100.00;96489.75;5073871;28;20282;-57
2022/11/08 05:10:22;;;;;;;2.30;2.20;;;;;;;5.57;100.00;96489.50;5075418;28;20289;-57
2022/11/08 05:12:49;;;;;;;2.60;1.97;;;;;;;5.58;100.00;96490.31;5077647;28;20207;-57
2022/11/08 05:15:16;;;;;;;2.20;2.10;;;;;;;5.63;100.00;96485.59;5073772;28;20688;-57
2022/11/08 05:17:44;;;;;;;2.90;2.27;;;;;;;5.62;100.00;96479.50;5067814;28;20285;-56
2022/11/08 05:25:47;;;;;;;2.50;2.30;;;;;;;5.56;100.00;96479.97;5078073;28;20263;-56
2022/11/08 05:28:13;;;;;;;3.63;2.93;;;;;;;5.53;100.00;96490.66;5077368;28;20203;-55
2022/11/08 05:30:41;;;;;;;3.17;2.20;;;;;;;5.47;100.00;96475.41;5077365;28;20293;-56
2022/11/08 05:33:08;;;;;;;2.73;1.93;;;;;;;5.47;100.00;96480.66;5076380;28;20236;-57
2022/11/08 05:35:36;;;;;;;3.27;3.03;;;;;;;5.53;100.00;96490.66;5072609;28;20198;-57
2022/11/08 05:38:04;;;;;;;3.90;3.13;;;;;;;5.58;100.00;96495.56;5076767;28;20249;-56
2022/11/08 05:40:31;;;;;;;4.87;3.60;;;;;;;5.60;100.00;96491.88;5077019;28;20267;-56
2022/11/08 05:43:00;;;;;;;4.27;3.73;;;;;;;5.62;100.00;96483.91;5077304;28;20289;-56
2022/11/08 05:45:27;;;;;;;4.37;3.43;;;;;;;5.59;100.00;96484.97;5066684;28;20295;-56
2022/11/08 05:47:53;;;;;;;4.07;2.80;;;;;;;5.62;100.00;96495.22;5075463;28;20233;-56
2022/11/08 05:50:20;;;;;;;3.63;3.30;;;;;;;5.64;100.00;96490.69;5076424;28;20277;-56
2022/11/08 05:52:47;;;;;;;3.40;2.83;;;;;;;5.67;100.00;96502.75;5071928;28;20249;-56
2022/11/08 05:55:13;;;;;;;6.97;3.50;;;;;;;5.65;100.00;96492.38;5069543;28;20213;-56
2022/11/08 05:57:42;;;;;;;6.67;4.10;;;;;;;5.66;100.00;96490.59;5064701;28;20237;-56
2022/11/08 06:00:11;;;;;;;5.77;4.00;;;;;;;5.62;100.00;96495.22;5076799;28;20210;-56
2022/11/08 06:02:38;;;;;;;7.47;5.03;;;;;;;5.72;100.00;96479.63;5075483;28;20293;-56
2022/11/08 06:05:05;;;;;;;4.20;3.80;;;;;;;5.78;100.00;96490.47;5076708;28;20245;-55
2022/11/08 06:07:32;;;;;;;4.37;3.27;;;;;;;5.80;100.00;96498.25;5076412;28;20673;-54
2022/11/08 06:10:01;;;;;;;9.80;6.27;;;;;;;5.85;100.00;96491.69;5076831;28;20238;-54
2022/11/08 06:12:27;;;;;;;5.43;4.83;;;;;;;5.87;100.00;96496.84;5076395;28;20690;-55
2022/11/08 06:14:54;;;;;;;4.80;4.33;;;;;;;5.87;100.00;96500.31;5075603;28;20230;-58
2022/11/08 06:17:22;;;;;;;7.73;3.97;;;;;;;5.84;100.00;96495.28;5063750;28;20202;-59
2022/11/08 06:19:49;;;;;;;4.13;3.80;;;;;;;5.83;100.00;96508.50;5073120;28;20291;-57
2022/11/08 06:22:16;;;;;;;4.70;4.00;;;;;;;5.82;100.00;96507.66;5067506;28;20633;-57
2022/11/08 06:24:43;;;;;;;4.30;3.30;;;;;;;5.85;100.00;96510.03;5080313;28;20267;-57
2022/11/08 06:27:09;;;;;;;3.80;3.50;;;;;;;5.76;100.00;96510.75;5078276;28;20230;-58
2022/11/08 06:29:36;;;;;;;6.73;3.90;;;;;;;5.83;100.00;96508.50;5077368;28;20297;-57
2022/11/08 06:32:03;;;;;;;4.77;3.60;;;;;;;5.81;100.00;96516.47;5076903;28;20285;-57
2022/11/08 06:34:31;;;;;;;7.67;4.10;;;;;;;5.78;100.00;96518.50;5077348;28;20546;-58
2022/11/08 06:36:59;;;;;;;6.10;3.63;;;;;;;5.78;100.00;96516.72;5077495;28;20233;-57
2022/11/08 06:39:26;;;;;;;4.90;3.50;;;;;;;5.70;100.00;96521.72;5077264;28;20264;-57
2022/11/08 06:41:54;;;;;;;4.93;3.63;;;;;;;5.60;100.00;96523.34;5076850;28;20228;-57
2022/11/08 06:44:20;;;;;;;4.00;3.70;;;;;;;5.62;100.00;96531.97;5077167;28;20339;-57
2022/11/08 06:46:47;;;;;;;4.20;3.73;;;;;;;5.62;100.00;96531.13;5077452;28;20246;-57
2022/11/08 06:49:14;;;;;;;7.37;4.60;;;;;;;5.61;100.00;96540.78;5076770;28;20244;-57
2022/11/08 06:51:42;;;;;;;5.70;5.10;;;;;;;5.63;100.00;96545.91;5076484;28;20317;-57
2022/11/08 06:54:09;;;;;;;5.87;5.30;;;;;;;5.65;100.00;96552.72;5077102;28;20229;-58
2022/11/08 06:56:36;;;;;;;6.73;6.03;;;;;;;5.65;100.00;96557.13;5077259;28;20297;-57
2022/11/08 06:59:05;;;;;;;7.27;6.13;;;;;;;5.62;100.00;96557.34;5077069;28;20285;-57
2022/11/08 07:01:32;;;;;;;5.90;5.30;;;;;;;5.55;100.00;96562.22;5076759;28;20226;-57
2022/11/08 07:03:59;;;;;;;6.73;5.10;;;;;;;5.57;100.00;96559.47;5077231;28;20240;-57
2022/11/08 07:06:26;;;;;;;8.97;6.27;;;;;;;5.60;100.00;96569.75;5077451;28;20234;-57
2022/11/08 07:08:54;;;;;;;8.70;6.03;;;;;;;5.58;100.00;96561.16;5076631;28;20295;-57
2022/11/08 07:11:21;;;;;;;6.47;5.37;;;;;;;5.58;100.00;96562.00;5075603;28;20209;-57
2022/11/08 07:13:47;;;;;;;6.30;5.67;;;;;;;5.55;100.00;96562.22;5076674;28;20605;-56
2022/11/08 07:16:15;;;;;;;5.83;5.23;;;;;;;5.54;100.00;96568.41;5076707;28;20614;-57
2022/11/08 07:18:41;;;;;;;5.83;5.33;;;;;;;5.59;100.00;96558.44;5076102;28;20256;-57
2022/11/08 07:21:12;;;;;;;6.20;5.60;;;;;;;5.58;100.00;96575.09;5076432;28;20615;-57
2022/11/08 07:23:38;;;;;;;6.57;5.97;;;;;;;5.54;100.00;96571.03;5076327;28;20259;-57
2022/11/08 07:26:07;;;;;;;6.50;5.90;;;;;;;5.72;100.00;96574.06;5076627;28;20238;-57
2022/11/08 07:28:34;;;;;;;7.07;5.80;;;;;;;5.81;100.00;96574.19;5078421;28;20221;-57
2022/11/08 07:31:02;;;;;;;6.87;6.23;;;;;;;5.92;100.00;96582.13;5077383;28;20281;-57
2022/11/08 07:33:29;;;;;;;6.03;5.53;;;;;;;6.08;100.00;96586.22;5061590;28;20557;-57
2022/11/08 07:35:58;;;;;;;7.30;6.13;;;;;;;6.21;100.00;96582.53;5076372;28;20245;-57
2022/11/08 07:38:26;;;;;;;6.83;6.13;;;;;;;6.32;100.00;96590.44;5076088;28;20284;-57
2022/11/08 07:40:56;;;;;;;8.50;6.27;;;;;;;6.37;100.00;96585.69;5082104;28;20240;-57
2022/11/08 07:43:24;;;;;;;7.73;6.80;;;;;;;6.39;100.00;96596.03;5079158;28;20206;-58
2022/11/08 07:45:54;;;;;;;8.90;7.40;;;;;;;6.43;100.00;96597.50;5079376;28;20218;-56
2022/11/08 07:48:21;;;;;;;14.33;7.70;;;;;;;6.40;100.00;96610.88;5079325;28;20237;-58
2022/11/08 07:50:47;;;;;;;7.97;7.17;;;;;;;6.44;100.00;96609.69;5075019;28;20317;-56
2022/11/08 07:53:14;;;;;;;8.57;7.77;;;;;;;6.52;100.00;96617.78;5075984;28;20234;-57
2022/11/08 07:55:41;;;;;;;11.83;7.63;;;;;;;6.47;100.00;96609.44;5075234;28;20294;-57
2022/11/08 07:58:10;;;;;;;8.07;7.27;;;;;;;6.47;100.00;96617.31;5075808;28;20206;-58
2022/11/08 08:00:39;;;;;;;8.27;6.67;;;;;;;6.56;100.00;96624.47;5075898;28;20249;-58
2022/11/08 08:03:08;;;;;;;8.03;7.27;;;;;;;6.62;100.00;96618.75;5084817;28;20230;-58
2022/11/08 08:05:36;;;;;;;9.43;7.60;;;;;;;6.60;100.00;96615.41;5075665;28;20237;-58
2022/11/08 08:08:04;;;;;;;9.23;7.83;;;;;;;6.68;100.00;96607.75;5075228;28;20233;-58
2022/11/08 08:10:30;;;;;;;8.17;7.37;;;;;;;6.78;100.00;96611.34;5075152;28;20691;-57
2022/11/08 08:12:58;;;;;;;9.10;7.60;;;;;;;6.87;100.00;96615.03;5075962;28;20254;-57
2022/11/08 08:15:25;;;;;;;9.90;8.10;;;;;;;6.96;100.00;96614.31;5071113;28;20227;-57
2022/11/08 08:17:55;;;;;;;9.53;8.10;;;;;;;7.05;100.00;96607.50;5067200;28;20639;-57
2022/11/08 08:20:22;;;;;;;10.30;7.90;;;;;;;7.09;100.00;96601.84;5075483;28;20292;-57
2022/11/08 08:22:51;;;;;;;8.93;8.03;;;;;;;7.21;100.00;96610.56;5075507;28;20713;-57
2022/11/08 08:25:20;;;;;;;7.73;6.93;;;;;;;7.25;100.00;96604.09;5075882;28;20232;-58
2022/11/08 08:27:47;;;;;;;11.47;8.43;;;;;;;7.34;100.00;96609.44;5075291;28;20234;-57
2022/11/08 08:30:14;;;;;;;9.27;7.67;;;;;;;7.45;100.00;96609.41;5075165;28;20214;-57
2022/11/08 08:32:41;;;;;;;9.53;8.17;;;;;;;7.50;100.00;96617.78;5075756;28;20252;-57
2022/11/08 08:35:10;;;;;;;19.33;9.20;;;;;;;7.58;100.00;96619.75;5075579;28;20670;-57
2022/11/08 08:37:37;;;;;;;17.57;8.87;;;;;;;7.65;100.00;96614.84;5074947;28;20206;-57
2022/11/08 08:40:07;;;;;;;13.87;8.33;;;;;;;7.75;100.00;96621.03;5074505;28;20543;-58
2022/11/08 08:42:35;;;;;;;8.53;7.67;;;;;;;7.85;100.00;96625.41;5074821;28;20222;-58
2022/11/08 08:45:02;;;;;;;9.10;8.20;;;;;;;7.93;100.00;96624.78;5076373;28;20336;-58
2022/11/08 08:47:29;;;;;;;9.47;7.77;;;;;;;8.06;100.00;96624.56;5078679;28;20242;-57
2022/11/08 08:49:55;;;;;;;8.07;7.20;;;;;;;8.17;100.00;96621.88;5079127;28;20317;-57
2022/11/08 08:52:23;;;;;;;9.77;7.63;;;;;;;8.29;100.00;96623.53;5092466;28;20198;-58
2022/11/08 08:54:51;;;;;;;9.30;8.07;;;;;;;8.36;100.00;96625.50;5100862;28;20198;-57
2022/11/08 08:57:18;;;;;;;8.43;7.50;;;;;;;8.38;100.00;96620.09;5095676;28;20692;-58
2022/11/08 08:59:48;;;;;;;9.07;8.10;;;;;;;8.47;100.00;96621.94;5096885;28;20190;-57
2022/11/08 09:02:16;;;;;;;9.63;8.23;;;;;;;8.61;100.00;96616.34;5082404;28;20214;-58
2022/11/08 09:04:45;;;;;;;8.93;8.03;;;;;;;8.89;100.00;96614.81;5080326;28;20206;-57
2022/11/08 09:07:12;;;;;;;9.30;7.93;;;;;;;9.13;100.00;96617.09;5075751;28;20253;-58
2022/11/08 09:09:41;;;;;;;8.80;7.90;;;;;;;9.24;100.00;96609.06;5079259;28;20694;-57
2022/11/08 09:12:08;;;;;;;9.77;7.83;;;;;;;9.27;100.00;96614.91;5078877;28;20245;-57
2022/11/08 09:14:35;;;;;;;11.13;8.00;;;;;;;9.24;100.00;96615.19;5079208;28;20290;-57
2022/11/08 09:17:02;;;;;;;8.63;7.73;;;;;;;9.47;100.00;96615.78;5065936;28;20210;-57
2022/11/08 09:19:28;;;;;;;7.53;6.83;;;;;;;9.50;100.00;96616.34;5079432;28;20285;-58
2022/11/08 09:21:55;;;;;;;12.00;7.93;;;;;;;9.49;100.00;96624.41;5078315;28;20230;-58
2022/11/08 09:24:25;;;;;;;8.07;7.27;;;;;;;9.39;100.00;96623.53;5079104;28;20202;-58
2022/11/08 09:26:53;;;;;;;8.53;7.60;;;;;;;9.43;100.00;96620.50;5078192;28;20635;-57
2022/11/08 09:29:19;;;;;;;8.40;7.57;;;;;;;9.42;100.00;96628.56;5079386;28;20213;-56
2022/11/08 09:31:46;;;;;;;10.37;7.37;;;;;;;9.46;100.00;96614.09;5079265;28;20264;-57
2022/11/08 09:34:13;;;;;;;9.93;7.63;;;;;;;9.49;100.00;96624.41;5079238;28;20588;-57
2022/11/08 09:36:41;;;;;;;7.57;6.80;;;;;;;9.56;100.00;96632.59;5079602;28;20285;-57
2022/11/08 09:39:10;;;;;;;9.37;7.63;;;;;;;9.76;100.00;96624.56;5080009;28;20742;-58
2022/11/08 09:41:56;;;;;;;9.77;7.93;;;;;;;9.80;100.00;96633.03;5079717;28;20245;-58
2022/11/08 09:44:45;;;;;;;7.90;7.10;;;;;;;9.79;100.00;96631.38;5083005;28;20237;-58
2022/11/08 09:47:15;;;;;;;10.13;7.27;;;;;;;9.90;100.00;96644.44;5097669;28;20207;-57
2022/11/08 09:49:44;;;;;;;8.33;7.13;;;;;;;9.89;100.00;96638.31;5082578;28;20268;-57
2022/11/08 09:52:23;;;;;;;8.77;7.83;;;;;;;9.98;100.00;96636.66;5097454;28;20209;-58
2022/11/08 09:54:51;;;;;;;9.00;8.10;;;;;;;10.07;100.00;96634.97;5087300;28;20202;-57
2022/11/08 09:57:25;;;;;;;9.47;7.60;;;;;;;10.18;100.00;96634.84;5088115;28;20202;-58
2022/11/08 09:59:56;;;;;;;9.17;7.50;;;;;;;10.35;100.00;96639.41;5098204;28;20202;-58
2022/11/08 10:02:24;;;;;;;8.50;7.70;;;;;;;10.80;100.00;96631.69;5098196;28;20210;-57
2022/11/08 10:04:54;;;;;;;8.97;6.90;;;;;;;11.11;100.00;96627.78;5098430;28;20550;-57
2022/11/08 10:07:27;;;;;;;9.97;7.33;;;;;;;11.30;100.00;96632.16;5090636;28;20234;-58
2022/11/08 10:10:34;;;;;;;10.50;7.33;;;;;;;11.64;100.00;96629.69;5077474;28;20195;-58
2022/11/08 10:13:08;;;;;;;9.73;6.80;;;;;;;12.02;97.25;96628.59;5054097;28;20289;-57
2022/11/08 10:15:43;;;;;;;10.17;6.67;;;;;;;12.22;97.40;96619.50;5079483;28;20189;-57
2022/11/08 10:18:30;;;;;;;10.17;6.70;;;;;;;12.22;95.67;96622.97;5076518;28;20662;-58
2022/11/08 10:21:05;;;;;;;8.17;6.00;;;;;;;12.17;94.62;96622.63;5067498;28;20543;-58
2022/11/08 10:23:41;;;;;;;8.83;6.03;;;;;;;12.05;94.42;96617.69;5076916;28;20271;-58
2022/11/08 10:26:13;;;;;;;7.23;5.87;;;;;;;11.96;94.78;96620.28;5077998;28;20301;-58
2022/11/08 10:28:49;;;;;;;9.07;5.77;;;;;;;11.87;95.56;96620.34;5077732;28;20207;-57
2022/11/08 10:31:18;;;;;;;9.07;5.93;;;;;;;11.84;96.49;96618.84;5077663;28;20190;-57
2022/11/08 10:33:49;;;;;;;8.33;5.93;;;;;;;11.80;98.66;96611.34;5079551;28;20645;-58
2022/11/08 10:36:21;;;;;;;6.23;5.33;;;;;;;11.77;100.00;96601.88;5080031;28;20293;-58
2022/11/08 10:38:54;;;;;;;7.43;5.83;;;;;;;11.79;99.69;96602.59;5079469;28;20623;-58
2022/11/08 10:41:25;;;;;;;7.67;5.60;;;;;;;11.83;99.84;96601.28;5078587;28;20201;-58
2022/11/08 10:43:56;;;;;;;7.93;5.60;;;;;;;12.00;99.97;96598.78;5078750;28;20626;-57
2022/11/08 10:46:40;;;;;;;6.53;5.93;;;;;;;12.12;99.21;96594.88;5078778;28;20283;-56
2022/11/08 10:49:19;;;;;;;8.33;6.77;;;;;;;12.26;97.16;96594.34;5078889;28;20199;-58
2022/11/08 10:51:48;;;;;;;6.97;6.37;;;;;;;12.45;96.87;96583.53;5077064;28;20325;-57
2022/11/08 10:54:44;;;;;;;10.80;6.67;;;;;;;12.51;96.79;96585.56;5085342;28;20238;-57
2022/11/08 10:57:12;;;;;;;7.17;6.10;;;;;;;12.55;96.33;96578.13;5099563;28;20213;-58
2022/11/08 10:59:40;;;;;;;9.33;6.37;;;;;;;12.43;94.55;96585.53;5099685;28;20209;-57
2022/11/08 11:02:25;;;;;;;8.67;7.23;;;;;;;12.42;95.41;96589.16;5093213;28;20272;-57
2022/11/08 11:04:52;;;;;;;8.77;6.90;;;;;;;12.40;97.35;96572.56;5076991;28;20218;-57
2022/11/08 11:07:28;;;;;;;10.43;7.60;;;;;;;12.36;96.16;96573.88;5074795;28;20634;-58
2022/11/08 11:09:55;;;;;;;9.63;7.30;;;;;;;12.37;95.09;96579.00;5075125;28;20285;-57
2022/11/08 11:12:21;;;;;;;8.60;6.50;;;;;;;12.35;96.49;96572.22;5075026;28;20226;-57
2022/11/08 11:14:57;;;;;;;8.67;6.90;;;;;;;12.35;97.51;96564.25;5076509;28;20644;-58
2022/11/08 11:17:29;;;;;;;6.67;5.93;;;;;;;12.40;97.74;96554.00;5056484;28;20209;-57
2022/11/08 11:19:57;;;;;;;9.27;6.97;;;;;;;12.43;99.10;96559.00;5072027;28;20281;-57
2022/11/08 11:22:29;;;;;;;8.57;6.70;;;;;;;12.48;99.89;96557.53;5075395;28;20314;-58
2022/11/08 11:24:56;;;;;;;6.53;5.67;;;;;;;12.53;99.33;96554.44;5091709;28;20226;-58
2022/11/08 11:27:28;;;;;;;12.00;6.83;;;;;;;12.57;99.62;96539.88;5085459;28;20264;-58
2022/11/08 11:33:01;;;;;;;10.00;6.43;;;;;;;12.57;96.92;96531.91;5115765;28;20546;-58
2022/11/08 11:35:33;;;;;;;8.03;6.10;;;;;;;12.60;98.32;96528.94;5100448;28;20225;-58
2022/11/08 11:38:03;;;;;;;7.20;6.07;;;;;;;12.65;98.67;96517.81;5092409;28;20209;-57
2022/11/08 11:40:36;;;;;;;9.43;6.10;;;;;;;12.69;99.01;96517.34;5092341;28;20209;-57
2022/11/08 11:43:07;;;;;;;8.23;5.97;;;;;;;12.72;97.93;96513.53;5092333;28;20266;-57
2022/11/08 11:45:38;;;;;;;7.67;6.00;;;;;;;12.76;98.01;96506.94;5080205;28;20190;-58
2022/11/08 11:48:11;;;;;;;7.23;6.53;;;;;;;12.82;98.20;96511.63;5079650;28;20241;-57
2022/11/08 11:50:41;;;;;;;8.00;6.73;;;;;;;12.88;98.06;96511.81;5091627;28;20618;-59
2022/11/08 11:53:15;;;;;;;9.17;6.50;;;;;;;12.95;98.78;96512.81;5092159;28;20725;-57
2022/11/08 11:56:10;;;;;;;10.13;7.10;;;;;;;13.01;97.15;96506.03;5092049;28;20297;-57
2022/11/08 11:58:52;;;;;;;7.70;5.87;;;;;;;13.05;98.54;96501.22;5087347;28;20206;-58
2022/11/08 12:01:31;;;;;;;11.97;6.53;;;;;;;13.12;97.20;96504.94;5091349;28;20511;-57
2022/11/08 12:04:41;;;;;;;6.67;6.00;;;;;;;13.15;96.68;96501.94;5074185;28;20302;-58
2022/11/08 12:07:10;;;;;;;8.40;6.10;;;;;;;13.22;98.09;96498.47;5065946;28;20320;-57